< < Back
Terminal Aerodrome Forecast


Current Version              Previous Versions:   1  2  3  4  5  6  7  8  9  

Terminal Aerodrome Forecast

113
FTUS42 KJAX 230200 AAA
TAFGNV
TAF AMD
KGNV 230215Z 2302/2324 19003KT 6SM -SHRA BR VCTS SCT010 BKN020CB
      OVC040
     FM230500 18004KT P6SM BKN005 OVC090
     FM230900 00000KT 5SM BR OVC004
     FM231300 19004KT P6SM SCT004 BKN020 BKN100
     FM231500 19007KT P6SM SCT020 SCT100 BKN150=



Latest METAR

350
SAUS70 KWBC 230300 RRE
MTRGNV
METAR KGNV 230253Z 15005KT 7SM OVC017 21/21 A2992 RMK AO2 LTG DSNT W AND
NW RAE05 SLP130 P0001 60008 T02110206 50005


USA.gov is the U.S. government's official web portal to all federal, state and local government web resources and services.